KSBN/SBN METAR and TAF weather

Enter ICAO airport designator
Station Type Date Time Source
KSBN METAR 2020/09/20 06:54 UTC NOAA

KSBN 200654Z AUTO 00000KT CLR 07/04 A3039 RMK AO2 SLP292 T00720044 $


Station Type Date Time Source
KSBN Decoded METAR 2020/09/20 06:54 UTC NOAA

SOUTH BEND REGIONAL AIRPORT, IN, United States (KSBN) 41-42N 086-19W 237M
Sep 20, 2020 - 02:54 AM EDT / 2020.09.20 0654 UTC
Wind: Calm:0
Sky conditions: clear
Temperature: 45.0 F (7.2 C)
Dew Point: 39.9 F (4.4 C)
Relative Humidity: 82%
Pressure (altimeter): 30.39 in. Hg (1029 hPa)
ob: KSBN 200654Z AUTO 00000KT CLR 07/04 A3039 RMK AO2 SLP292 T00720044
cycle: 7

Station Type Date Time Source
KSBN TAF 2020/09/20 06:22 UTC NOAA

TAF KSBN 200520Z 2006/2106 VRB03KT P6SM SKC
FM201600 13008KT P6SM SKC

Example: see airport list